Main page
METAR-TAF:

METAR-TAF

Airports :

Exeter Airport

Exeter, England

latitude: 50-44N, longitude: 003-25W, elevation: 30 m

Current weather observation

The report was made 39 minutes ago, at 18:50 UTC
Wind 3 kt from the East
Temperature 17°C
Humidity 68%
Pressure 1016 hPa
Visibility 10 km or more
no clouds below 1500 m and no cumulonimbus

METAR: EGTE 211850Z 09003KT CAVOK 17/11 Q1016

Time: 20:29 (19:29 UTC)

Forecast

The report was made 5 hours and 23 minutes ago, at 14:06 UTC
Forecast valid from 21 at 15 UTC to 21 at 24 UTC
Wind 3 kt from variable directions
Visibility 10 km or more
no clouds below 1500 m and no cumulonimbus
Probability 30% :
Temporary
from 21 at 15 UTC to 21 at 18 UTC
Wind 10 kt from the South

TAF: EGTE 211406Z 2115/2124 VRB03KT CAVOK PROB30 TEMPO 2115/2118 17010KT

Weather observations and forecasts of more than 4000 airports (METAR and TAF reports).

The available stations are represented by yellow and red dots on the map.

Hover mouse over dot to see the name of the station.

Then click to see weather observations and forecasts.

To change the map : click on the green buttons with a black cross to zoom in, on the green button with a dash to zoom out, or on the green arrows for adjacent maps.


METAR-TAF: